createdAt,value
2023-02-18T00:01:31.409Z,64.24
2023-02-18T00:04:00.027Z,64.18
2023-02-18T00:06:33.590Z,64.07
2023-02-18T00:09:02.560Z,64.20
2023-02-18T00:11:31.994Z,64.36
2023-02-18T00:14:01.464Z,64.41
2023-02-18T00:16:29.891Z,64.34
2023-02-18T00:19:03.351Z,64.34
2023-02-18T00:21:30.419Z,64.24
2023-02-18T00:23:57.078Z,64.09
2023-02-18T00:26:24.333Z,64.24
2023-02-18T00:28:54.376Z,64.36
2023-02-18T00:31:26.992Z,64.34
2023-02-18T00:33:54.322Z,64.16
2023-02-18T00:36:22.056Z,64.40
2023-02-18T00:39:01.175Z,64.38
2023-02-18T00:41:29.139Z,64.18
2023-02-18T00:43:56.426Z,64.33
2023-02-18T00:46:24.747Z,64.50
2023-02-18T00:48:54.001Z,64.22
2023-02-18T00:51:21.549Z,64.17
2023-02-18T00:53:48.816Z,64.59
2023-02-18T00:56:15.578Z,64.41
2023-02-18T00:58:42.603Z,64.41
2023-02-18T01:01:10.556Z,64.44
2023-02-18T01:03:38.621Z,64.25
2023-02-18T01:06:06.618Z,64.51
2023-02-18T01:08:35.118Z,64.49
2023-02-18T01:11:02.790Z,64.36
2023-02-18T01:13:30.076Z,64.45
2023-02-18T01:15:57.471Z,64.40
2023-02-18T01:18:26.196Z,64.34
2023-02-18T01:20:53.061Z,64.62
2023-02-18T01:23:20.298Z,64.60
2023-02-18T01:25:49.337Z,64.79
2023-02-18T01:28:16.451Z,64.73
2023-02-18T01:30:44.147Z,64.68
2023-02-18T01:33:12.301Z,64.79
2023-02-18T01:35:40.796Z,64.52
2023-02-18T01:38:08.145Z,64.64
2023-02-18T01:40:35.643Z,64.77
2023-02-18T01:43:02.576Z,64.45
2023-02-18T01:45:58.068Z,64.59
2023-02-18T01:48:34.240Z,64.68
2023-02-18T01:51:27.291Z,64.61
2023-02-18T01:54:29.136Z,64.73
2023-02-18T01:57:07.964Z,64.51
2023-02-18T01:59:48.029Z,64.76
2023-02-18T02:02:19.329Z,64.61
2023-02-18T02:04:47.392Z,64.97
2023-02-18T02:07:15.841Z,64.68
2023-02-18T02:09:43.432Z,64.56
2023-02-18T02:12:40.189Z,64.26
2023-02-18T02:15:19.005Z,64.79
2023-02-18T02:18:05.486Z,64.51
2023-02-18T02:20:59.975Z,64.63
2023-02-18T02:23:52.088Z,64.78
2023-02-18T02:26:41.684Z,64.85
2023-02-18T02:29:20.028Z,64.57
2023-02-18T02:32:08.240Z,64.46
2023-02-18T02:34:49.591Z,64.33
2023-02-18T02:37:31.502Z,64.56
2023-02-18T02:40:16.741Z,64.77
2023-02-18T02:42:47.785Z,64.50
2023-02-18T02:45:41.074Z,64.61
2023-02-18T02:48:22.996Z,64.71
2023-02-18T02:51:05.079Z,64.70
2023-02-18T02:53:35.140Z,64.73
2023-02-18T02:56:01.808Z,64.98
2023-02-18T02:58:29.463Z,64.52
2023-02-18T03:01:17.010Z,64.77
2023-02-18T03:04:08.802Z,64.59
2023-02-18T03:07:07.179Z,64.90
2023-02-18T03:09:39.444Z,64.88
2023-02-18T03:12:27.636Z,64.83
2023-02-18T03:15:08.232Z,64.79
2023-02-18T03:17:47.893Z,64.79
2023-02-18T03:20:28.444Z,64.88
2023-02-18T03:22:58.767Z,64.87
2023-02-18T03:25:26.680Z,64.61
2023-02-18T03:27:58.470Z,64.79
2023-02-18T03:30:49.013Z,64.76
2023-02-18T03:33:22.244Z,64.97
2023-02-18T03:35:50.252Z,64.89
2023-02-18T03:38:24.217Z,64.59
2023-02-18T03:40:51.077Z,64.85
2023-02-18T03:43:18.521Z,64.98
2023-02-18T03:45:45.378Z,64.89
2023-02-18T03:48:12.094Z,64.97
2023-02-18T03:50:38.891Z,64.92
2023-02-18T03:53:05.757Z,64.96
2023-02-18T03:55:32.568Z,64.84
2023-02-18T03:57:59.338Z,64.93
2023-02-18T04:00:25.951Z,64.83
2023-02-18T04:02:52.551Z,64.93
2023-02-18T04:05:19.339Z,65.10
2023-02-18T04:07:45.930Z,64.70
2023-02-18T04:10:13.030Z,64.94
2023-02-18T04:12:39.852Z,65.02
2023-02-18T04:15:06.814Z,64.93
2023-02-18T04:17:34.387Z,64.87
2023-02-18T04:20:01.050Z,64.90
2023-02-18T04:22:27.993Z,64.80
2023-02-18T04:24:55.070Z,64.73
2023-02-18T04:27:21.800Z,64.84
2023-02-18T04:29:48.634Z,64.65
2023-02-18T04:32:15.367Z,65.06
2023-02-18T04:34:42.238Z,65.05
2023-02-18T04:37:08.993Z,65.17
2023-02-18T04:39:35.617Z,65.10
2023-02-18T04:42:02.769Z,65.18
2023-02-18T04:44:29.396Z,65.00
2023-02-18T04:46:56.227Z,65.13
2023-02-18T04:49:23.054Z,64.93
2023-02-18T04:51:49.590Z,65.05
2023-02-18T04:54:16.276Z,64.92
2023-02-18T04:56:42.988Z,65.11
2023-02-18T04:59:09.692Z,64.82
2023-02-18T05:01:36.679Z,64.74
2023-02-18T05:04:03.585Z,64.99
2023-02-18T05:06:30.317Z,64.91
2023-02-18T05:08:57.066Z,65.00
2023-02-18T05:11:23.989Z,64.81
2023-02-18T05:13:50.844Z,64.70
2023-02-18T05:16:17.655Z,64.81
2023-02-18T05:18:44.398Z,64.90
2023-02-18T05:21:12.170Z,65.09
2023-02-18T05:23:38.827Z,64.98
2023-02-18T05:26:05.433Z,65.02
2023-02-18T05:28:32.091Z,65.01
2023-02-18T05:30:58.842Z,65.06
2023-02-18T05:33:26.070Z,64.89
2023-02-18T05:35:53.057Z,64.98
2023-02-18T05:38:20.228Z,65.10
2023-02-18T05:40:47.757Z,64.83
2023-02-18T05:43:14.590Z,64.95
2023-02-18T05:45:41.248Z,64.99
2023-02-18T05:48:08.022Z,64.88
2023-02-18T05:50:34.692Z,64.70
2023-02-18T05:53:01.593Z,64.86
2023-02-18T05:55:28.337Z,64.89
2023-02-18T05:57:55.105Z,64.81
2023-02-18T06:00:22.024Z,65.04
2023-02-18T06:02:48.855Z,65.03
2023-02-18T06:05:15.677Z,64.88
2023-02-18T06:07:42.359Z,64.77
2023-02-18T06:10:09.449Z,65.08
2023-02-18T06:12:36.237Z,64.94
2023-02-18T06:15:03.111Z,64.82
2023-02-18T06:17:29.914Z,64.78
2023-02-18T06:19:56.673Z,64.94
2023-02-18T06:22:23.322Z,64.97
2023-02-18T06:24:50.076Z,64.91
2023-02-18T06:27:16.867Z,64.93
2023-02-18T06:29:43.806Z,64.83
2023-02-18T06:32:10.631Z,64.69
2023-02-18T06:34:37.402Z,64.77
2023-02-18T06:37:04.126Z,64.74
2023-02-18T06:39:30.740Z,64.86
2023-02-18T06:41:57.570Z,65.08
2023-02-18T06:44:24.331Z,65.35
2023-02-18T06:46:51.028Z,65.10
2023-02-18T06:49:17.714Z,65.20
2023-02-18T06:51:44.472Z,65.08
2023-02-18T06:54:11.191Z,65.21
2023-02-18T06:56:37.913Z,65.24
2023-02-18T06:59:04.706Z,65.10
2023-02-18T07:01:31.326Z,65.26
2023-02-18T07:03:57.974Z,65.09
2023-02-18T07:06:24.687Z,64.86
2023-02-18T07:08:51.342Z,64.57
2023-02-18T07:11:18.080Z,64.58
2023-02-18T07:13:44.825Z,64.57
2023-02-18T07:16:12.057Z,64.48
2023-02-18T07:18:39.045Z,64.52
2023-02-18T07:21:05.914Z,64.23
2023-02-18T07:23:32.724Z,64.35
2023-02-18T07:26:08.873Z,64.03
2023-02-18T07:28:36.028Z,63.86
2023-02-18T07:31:03.726Z,63.84
2023-02-18T07:33:30.589Z,63.57
2023-02-18T07:35:58.800Z,63.59
2023-02-18T07:38:27.160Z,63.48
2023-02-18T07:40:54.804Z,63.39
2023-02-18T07:43:21.866Z,63.09
2023-02-18T07:45:48.965Z,62.80
2023-02-18T07:48:18.672Z,62.27
2023-02-18T07:50:46.425Z,62.49
2023-02-18T07:53:15.955Z,62.22
2023-02-18T07:55:49.353Z,61.85
2023-02-18T07:58:26.137Z,61.63
2023-02-18T08:00:54.268Z,61.69
2023-02-18T08:03:23.112Z,61.39
2023-02-18T08:05:51.607Z,61.50
2023-02-18T08:08:21.916Z,61.41
2023-02-18T08:10:49.572Z,61.50
2023-02-18T08:13:16.687Z,61.25
2023-02-18T08:15:43.840Z,60.90
2023-02-18T08:18:17.525Z,60.91
2023-02-18T08:20:44.356Z,60.65
2023-02-18T08:23:11.596Z,60.42
2023-02-18T08:25:38.536Z,60.19
2023-02-18T08:28:06.046Z,60.34
2023-02-18T08:30:32.998Z,59.81
2023-02-18T08:32:59.873Z,59.71
2023-02-18T08:35:26.737Z,59.74
2023-02-18T08:37:54.230Z,59.45
2023-02-18T08:40:21.829Z,59.40
2023-02-18T08:42:48.505Z,59.36
2023-02-18T08:45:15.446Z,59.35
2023-02-18T08:48:16.886Z,59.40
2023-02-18T08:50:28.870Z,59.25
2023-02-18T08:52:56.867Z,59.15
2023-02-18T08:55:25.102Z,59.43
2023-02-18T08:57:51.684Z,59.22
2023-02-18T09:00:19.110Z,59.03
2023-02-18T09:02:47.436Z,59.11
2023-02-18T09:05:14.710Z,58.98
2023-02-18T09:07:41.502Z,58.96
2023-02-18T09:10:09.548Z,58.89
2023-02-18T09:12:36.494Z,59.09
2023-02-18T09:15:04.803Z,58.96
2023-02-18T09:17:31.456Z,59.14
2023-02-18T09:19:58.037Z,59.15
2023-02-18T09:22:24.941Z,59.29
2023-02-18T09:24:51.847Z,59.41
2023-02-18T09:27:18.676Z,59.39
2023-02-18T09:29:45.369Z,59.35
2023-02-18T09:32:14.490Z,59.35
2023-02-18T09:34:46.504Z,59.26
2023-02-18T09:37:14.683Z,59.28
2023-02-18T09:39:41.473Z,59.18
2023-02-18T09:42:14.275Z,59.33
2023-02-18T09:44:47.482Z,59.30
2023-02-18T09:47:25.076Z,59.17
2023-02-18T09:49:58.064Z,58.83
2023-02-18T09:52:29.893Z,58.98
2023-02-18T09:54:56.814Z,59.05
2023-02-18T09:57:35.087Z,59.02
2023-02-18T10:00:08.272Z,59.04
2023-02-18T10:02:55.347Z,59.00
2023-02-18T10:05:24.824Z,58.92
2023-02-18T10:07:54.469Z,58.92
2023-02-18T10:10:46.417Z,58.99
2023-02-18T10:13:16.534Z,58.95
2023-02-18T10:15:43.718Z,58.80
2023-02-18T10:21:15.049Z,58.81
2023-02-18T10:23:50.341Z,58.91
2023-02-18T10:26:19.654Z,58.82
2023-02-18T10:28:46.688Z,58.66
2023-02-18T10:31:25.728Z,58.73
2023-02-18T10:33:58.452Z,58.58
2023-02-18T10:36:36.466Z,58.78
2023-02-18T10:39:07.720Z,58.54
2023-02-18T10:41:40.223Z,58.57
2023-02-18T10:44:38.437Z,58.68
2023-02-18T10:47:34.937Z,58.55
2023-02-18T10:50:35.241Z,58.53
2023-02-18T10:53:11.743Z,58.74
2023-02-18T10:55:44.638Z,58.68
2023-02-18T10:58:34.522Z,59.07
2023-02-18T11:01:08.475Z,59.49
2023-02-18T11:03:38.236Z,58.88
2023-02-18T11:06:05.466Z,58.64
2023-02-18T11:08:42.671Z,58.92
2023-02-18T11:11:17.395Z,58.89
2023-02-18T11:13:44.204Z,58.89
2023-02-18T11:16:12.587Z,58.89
2023-02-18T11:19:02.875Z,58.63
2023-02-18T11:21:37.185Z,58.50
2023-02-18T11:24:15.941Z,58.14
2023-02-18T11:26:44.782Z,58.15
2023-02-18T11:29:24.228Z,58.72
2023-02-18T11:31:55.674Z,58.70
2023-02-18T11:34:27.347Z,58.39
2023-02-18T11:36:54.712Z,58.55
2023-02-18T11:39:30.045Z,58.60
2023-02-18T11:42:01.178Z,58.10
2023-02-18T11:44:30.765Z,58.30
2023-02-18T11:46:59.532Z,58.44
2023-02-18T11:49:26.573Z,57.72
2023-02-18T11:51:53.480Z,58.20
2023-02-18T11:54:30.198Z,58.02
2023-02-18T11:57:03.969Z,57.87
2023-02-18T11:59:34.237Z,57.64
2023-02-18T12:02:03.528Z,57.79
2023-02-18T12:04:40.176Z,57.65
2023-02-18T12:07:13.324Z,57.58
2023-02-18T12:09:58.044Z,57.67
2023-02-18T12:12:24.803Z,57.63
2023-02-18T12:14:54.414Z,57.78
2023-02-18T12:17:38.171Z,57.40
2023-02-18T12:20:06.650Z,57.86
2023-02-18T12:23:13.728Z,57.56
2023-02-18T12:25:49.426Z,57.76
2023-02-18T12:28:22.341Z,57.59
2023-02-18T12:31:30.710Z,57.81
2023-02-18T12:34:10.351Z,57.95
2023-02-18T12:37:18.641Z,57.88
2023-02-18T12:39:55.349Z,57.94
2023-02-18T12:42:45.411Z,58.03
2023-02-18T12:45:20.990Z,57.90
2023-02-18T12:48:07.284Z,57.86
2023-02-18T12:50:55.969Z,58.06
2023-02-18T12:53:50.304Z,57.96
2023-02-18T12:56:34.340Z,57.76
2023-02-18T12:59:25.312Z,57.92
2023-02-18T13:02:23.399Z,57.85
2023-02-18T13:05:18.344Z,58.03
2023-02-18T13:08:13.964Z,57.72
2023-02-18T13:10:56.031Z,57.71
2023-02-18T13:13:26.096Z,57.83
2023-02-18T13:15:55.440Z,57.71
2023-02-18T13:18:24.695Z,57.57
2023-02-18T13:20:56.426Z,57.64
2023-02-18T13:23:27.888Z,57.55
2023-02-18T13:26:01.128Z,57.53
2023-02-18T13:28:30.724Z,57.50
2023-02-18T13:31:34.969Z,57.40
2023-02-18T13:34:29.744Z,57.64
2023-02-18T13:37:06.859Z,57.63
2023-02-18T13:39:34.609Z,57.47
2023-02-18T13:42:18.326Z,57.46
2023-02-18T13:44:56.928Z,57.46
2023-02-18T13:47:46.414Z,57.44
2023-02-18T13:50:28.338Z,57.44
2023-02-18T13:53:09.306Z,57.44
2023-02-18T13:55:53.032Z,57.67
2023-02-18T13:58:24.699Z,57.52
2023-02-18T14:01:00.961Z,57.64
2023-02-18T14:03:30.796Z,57.72
2023-02-18T14:05:57.796Z,57.86
2023-02-18T14:08:38.878Z,57.86
2023-02-18T14:11:11.842Z,57.88
2023-02-18T14:13:41.544Z,58.01
2023-02-18T14:16:09.542Z,58.03
2023-02-18T14:18:39.177Z,58.65
2023-02-18T14:21:21.206Z,58.77
2023-02-18T14:24:00.039Z,58.45
2023-02-18T14:26:32.548Z,58.56
2023-02-18T14:29:11.865Z,58.74
2023-02-18T14:31:47.739Z,58.48
2023-02-18T14:34:23.622Z,58.43
2023-02-18T14:37:11.830Z,58.44
2023-02-18T14:39:41.508Z,58.34
2023-02-18T14:42:30.320Z,58.46
2023-02-18T14:45:05.224Z,58.25
2023-02-18T14:47:50.269Z,58.21
2023-02-18T14:50:19.974Z,58.28
2023-02-18T14:52:54.287Z,58.20
2023-02-18T14:55:25.586Z,58.56
2023-02-18T14:58:01.545Z,58.78
2023-02-18T15:00:32.368Z,59.00
2023-02-18T15:03:01.888Z,59.10
2023-02-18T15:05:37.131Z,59.00
2023-02-18T15:08:14.793Z,58.94
2023-02-18T15:10:53.656Z,58.98
2023-02-18T15:13:24.574Z,58.67
2023-02-18T15:15:54.666Z,58.46
2023-02-18T15:18:40.391Z,58.35
2023-02-18T15:21:10.228Z,58.35
2023-02-18T15:23:39.485Z,58.32
2023-02-18T15:26:12.796Z,58.33
2023-02-18T15:28:58.160Z,58.17
2023-02-18T15:31:30.283Z,58.06
2023-02-18T15:33:57.412Z,58.05
2023-02-18T15:36:26.147Z,57.87
2023-02-18T15:38:53.398Z,57.58
2023-02-18T15:41:23.001Z,57.64
2023-02-18T15:44:03.139Z,57.42
2023-02-18T15:46:30.413Z,57.36
2023-02-18T15:48:57.750Z,57.26
2023-02-18T15:51:31.679Z,57.34
2023-02-18T15:54:02.813Z,57.04
2023-02-18T15:56:32.071Z,56.75
2023-02-18T15:59:09.259Z,57.07
2023-02-18T16:01:36.421Z,57.22
2023-02-18T16:04:05.884Z,57.30
2023-02-18T16:06:36.120Z,57.57
2023-02-18T16:09:13.329Z,57.41
2023-02-18T16:11:43.716Z,56.96
2023-02-18T16:14:35.457Z,57.51
2023-02-18T16:17:21.328Z,57.12
2023-02-18T16:20:04.923Z,57.69
2023-02-18T16:22:33.375Z,57.81
2023-02-18T16:25:07.425Z,57.65
2023-02-18T16:27:37.143Z,57.70
2023-02-18T16:30:29.074Z,57.22
2023-02-18T16:32:57.922Z,57.10
2023-02-18T16:35:27.861Z,56.98
2023-02-18T16:37:59.968Z,56.99
2023-02-18T16:40:31.012Z,56.97
2023-02-18T16:43:12.679Z,57.11
2023-02-18T16:45:46.072Z,57.17
2023-02-18T16:48:17.282Z,57.26
2023-02-18T16:50:44.034Z,57.20
2023-02-18T16:53:13.489Z,57.15
2023-02-18T16:55:40.611Z,57.28
2023-02-18T16:58:07.335Z,57.33
2023-02-18T17:00:34.391Z,57.52
2023-02-18T17:03:01.571Z,57.48
2023-02-18T17:05:31.673Z,57.66
2023-02-18T17:08:14.460Z,57.84
2023-02-18T17:10:41.399Z,57.92
2023-02-18T17:13:15.076Z,57.93
2023-02-18T17:15:43.535Z,58.10
2023-02-18T17:18:10.704Z,58.31
2023-02-18T17:20:37.400Z,58.35
2023-02-18T17:23:04.049Z,58.30
2023-02-18T17:25:34.606Z,58.38
2023-02-18T17:28:01.328Z,58.61
2023-02-18T17:30:30.543Z,58.79
2023-02-18T17:33:02.430Z,58.82
2023-02-18T17:35:30.139Z,58.75
2023-02-18T17:37:56.921Z,58.92
2023-02-18T17:40:26.494Z,59.05
2023-02-18T17:42:55.278Z,59.20
2023-02-18T17:45:32.138Z,59.14
2023-02-18T17:48:00.671Z,59.85
2023-02-18T17:50:29.053Z,59.36
2023-02-18T17:52:55.740Z,59.65
2023-02-18T17:55:25.639Z,59.63
2023-02-18T17:57:52.969Z,59.66
2023-02-18T18:00:23.917Z,58.86
2023-02-18T18:02:50.766Z,58.85
2023-02-18T18:05:24.413Z,58.97
2023-02-18T18:07:51.879Z,58.94
2023-02-18T18:10:28.514Z,59.05
2023-02-18T18:12:55.329Z,59.05
2023-02-18T18:15:34.826Z,58.84
2023-02-18T18:18:02.082Z,58.73
2023-02-18T18:20:31.683Z,58.67
2023-02-18T18:23:00.818Z,58.62
2023-02-18T18:25:55.929Z,58.39
2023-02-18T18:28:23.628Z,58.29
2023-02-18T18:30:52.438Z,58.30
2023-02-18T18:33:24.227Z,58.17
2023-02-18T18:35:53.533Z,58.37
2023-02-18T18:38:22.341Z,58.28
2023-02-18T18:40:50.530Z,58.24
2023-02-18T18:43:20.820Z,58.13
2023-02-18T18:45:48.747Z,57.77
2023-02-18T18:48:16.414Z,57.99
2023-02-18T18:50:44.049Z,58.01
2023-02-18T18:53:20.040Z,57.76
2023-02-18T18:55:47.380Z,57.87
2023-02-18T18:58:14.313Z,57.99
2023-02-18T19:00:43.513Z,58.07
2023-02-18T19:03:11.694Z,57.88
2023-02-18T19:05:41.179Z,57.99
2023-02-18T19:08:09.517Z,57.90
2023-02-18T19:10:42.284Z,57.66
2023-02-18T19:13:15.457Z,57.96
2023-02-18T19:15:42.381Z,57.81
2023-02-18T19:18:13.638Z,57.73
2023-02-18T19:20:42.680Z,57.76
2023-02-18T19:23:09.793Z,57.58
2023-02-18T19:25:37.824Z,57.63
2023-02-18T19:28:05.456Z,57.62
2023-02-18T19:30:34.838Z,57.58
2023-02-18T19:33:02.584Z,57.69
2023-02-18T19:35:30.823Z,57.62
2023-02-18T19:37:58.952Z,57.48
2023-02-18T19:40:30.091Z,57.45
2023-02-18T19:42:57.251Z,57.59
2023-02-18T19:45:24.504Z,57.63
2023-02-18T19:47:56.412Z,57.54
2023-02-18T19:50:24.106Z,57.39
2023-02-18T19:52:55.435Z,57.54
2023-02-18T19:55:23.354Z,57.52
2023-02-18T19:57:51.165Z,57.62
2023-02-18T20:00:22.280Z,57.52
2023-02-18T20:02:50.168Z,57.52
2023-02-18T20:05:18.108Z,57.54
2023-02-18T20:07:46.739Z,57.62
2023-02-18T20:10:16.283Z,57.53
2023-02-18T20:12:43.128Z,57.54
2023-02-18T20:15:10.308Z,57.50
2023-02-18T20:17:39.383Z,57.48
2023-02-18T20:20:06.626Z,57.13
2023-02-18T20:22:33.509Z,57.40
2023-02-18T20:25:00.326Z,57.49
2023-02-18T20:27:27.085Z,57.37
2023-02-18T20:29:53.976Z,57.39
2023-02-18T20:32:20.630Z,57.17
2023-02-18T20:34:47.471Z,57.50
2023-02-18T20:37:14.146Z,57.34
2023-02-18T20:39:40.980Z,57.32
2023-02-18T20:42:16.024Z,57.30
2023-02-18T20:44:44.280Z,57.45
2023-02-18T20:47:13.697Z,57.43
2023-02-18T20:49:41.077Z,57.56
2023-02-18T20:52:09.174Z,57.74
2023-02-18T20:54:36.314Z,57.86
2023-02-18T20:57:03.215Z,57.76
2023-02-18T20:59:30.343Z,58.05
2023-02-18T21:01:57.246Z,58.00
2023-02-18T21:04:24.157Z,58.13
2023-02-18T21:06:51.090Z,58.29
2023-02-18T21:09:18.786Z,58.53
2023-02-18T21:11:45.977Z,58.87
2023-02-18T21:14:12.791Z,59.06
2023-02-18T21:16:40.014Z,59.13
2023-02-18T21:19:09.395Z,59.36
2023-02-18T21:21:35.921Z,59.48
2023-02-18T21:24:03.119Z,59.46
2023-02-18T21:26:30.428Z,59.52
2023-02-18T21:29:01.118Z,59.70
2023-02-18T21:31:32.080Z,59.91
2023-02-18T21:33:59.441Z,59.90
2023-02-18T21:36:27.187Z,60.03
2023-02-18T21:38:56.415Z,60.06
2023-02-18T21:41:23.848Z,60.17
2023-02-18T21:43:51.417Z,60.26
2023-02-18T21:46:21.066Z,60.33
2023-02-18T21:49:03.317Z,60.34
2023-02-18T21:51:57.174Z,60.30
2023-02-18T21:54:28.542Z,60.38
2023-02-18T21:56:56.349Z,60.51
2023-02-18T21:59:26.837Z,60.49
2023-02-18T22:01:54.165Z,60.61
2023-02-18T22:04:21.290Z,60.54
2023-02-18T22:06:47.980Z,60.81
2023-02-18T22:09:15.195Z,60.78
2023-02-18T22:11:43.050Z,60.98
2023-02-18T22:14:11.607Z,60.98
2023-02-18T22:16:39.220Z,61.17
2023-02-18T22:19:06.806Z,61.17
2023-02-18T22:21:34.012Z,61.16
2023-02-18T22:24:00.766Z,61.29
2023-02-18T22:26:27.569Z,61.42
2023-02-18T22:28:56.540Z,61.44
2023-02-18T22:31:25.200Z,61.42
2023-02-18T22:33:52.493Z,61.53
2023-02-18T22:36:21.708Z,61.48
2023-02-18T22:38:48.606Z,61.47
2023-02-18T22:41:17.721Z,61.50
2023-02-18T22:43:44.561Z,61.89
2023-02-18T22:46:14.151Z,61.73
2023-02-18T22:48:41.294Z,61.73
2023-02-18T22:51:20.275Z,61.83
2023-02-18T22:53:47.168Z,61.61
2023-02-18T22:56:16.314Z,61.73
2023-02-18T22:58:43.659Z,61.86
2023-02-18T23:01:21.079Z,61.69
2023-02-18T23:03:47.963Z,61.58
2023-02-18T23:06:15.181Z,61.77
2023-02-18T23:08:42.044Z,61.79
2023-02-18T23:11:12.021Z,61.85
2023-02-18T23:13:39.274Z,61.96
2023-02-18T23:16:09.350Z,61.98
2023-02-18T23:18:36.168Z,62.06
2023-02-18T23:21:17.790Z,62.09
2023-02-18T23:23:46.489Z,62.10
2023-02-18T23:26:14.421Z,62.18
2023-02-18T23:28:50.661Z,62.20
2023-02-18T23:31:23.502Z,62.21
2023-02-18T23:33:54.585Z,62.21
2023-02-18T23:36:24.233Z,62.26
2023-02-18T23:38:56.534Z,62.28
2023-02-18T23:41:23.921Z,62.44
2023-02-18T23:43:51.420Z,62.29
2023-02-18T23:46:20.732Z,62.39
2023-02-18T23:48:47.731Z,62.24
2023-02-18T23:51:16.402Z,62.37
2023-02-18T23:53:43.598Z,62.33
2023-02-18T23:56:24.707Z,62.48
2023-02-18T23:59:02.246Z,62.58
